Time;durP1;ratioP1;P1;durP2;ratioP2;P2;SDS_P1;SDS_P2;PMS_P1;PMS_P2;Temp;Humidity;BMP_temperature;BMP_pressure;BME280_temperature;BME280_humidity;BME280_pressure;Samples;Min_cycle;Max_cycle;Signal;HPM_P1;HPM_P2
2022/01/25 00:33:51;;;;;;;;;;;4.40;1.00;;;;;;5020125;28;19967;-78
2022/01/25 00:36:17;;;;;;;;;;;4.40;1.00;;;;;;5018162;28;19971;-79
2022/01/25 00:38:44;;;;;;;;;;;4.40;1.00;;;;;;5017819;28;19913;-78
2022/01/25 00:41:09;;;;;;;;;;;4.40;1.00;;;;;;5018747;28;20002;-78
2022/01/25 00:43:35;;;;;;;;;;;4.40;1.00;;;;;;5018952;28;19917;-78
2022/01/25 00:46:05;;;;;;;;;;;4.40;1.00;;;;;;5027714;28;19914;-78
2022/01/25 00:48:55;;;;;;;;;;;4.40;1.00;;;;;;5019231;28;19917;-78
2022/01/25 00:54:03;;;;;;;;;;;4.40;1.00;;;;;;5018309;28;19924;-78
2022/01/25 00:56:30;;;;;;;;;;;4.40;1.00;;;;;;5032973;28;19964;-78
2022/01/25 00:58:56;;;;;;;;;;;4.40;1.00;;;;;;5019026;28;19921;-78
2022/01/25 01:01:21;;;;;;;;;;;4.50;1.00;;;;;;5018109;28;19914;-78
2022/01/25 01:03:47;;;;;;;;;;;4.50;1.00;;;;;;5017472;28;19921;-78
2022/01/25 01:06:14;;;;;;;;;;;4.60;1.00;;;;;;5019168;28;19914;-78
2022/01/25 01:08:40;;;;;;;;;;;4.60;1.00;;;;;;5018470;28;19936;-78
2022/01/25 01:11:09;;;;;;;;;;;4.50;1.00;;;;;;5019719;28;19960;-77
2022/01/25 01:29:50;;;;;;;;;;;4.50;1.00;;;;;;5022012;28;19956;-78
2022/01/25 01:32:45;;;;;;;;;;;4.40;1.00;;;;;;5021161;28;20381;-79
2022/01/25 01:35:34;;;;;;;;;;;4.40;1.00;;;;;;5021190;28;20297;-78
2022/01/25 01:43:15;;;;;;;;;;;4.40;12.00;;;;;;5021776;28;19921;-78
2022/01/25 01:48:30;;;;;;;;;;;4.40;99.90;;;;;;5021679;28;20128;-78
2022/01/25 01:51:02;;;;;;;;;;;4.40;99.90;;;;;;5033715;28;19917;-79
2022/01/25 01:53:28;;;;;;;;;;;4.40;99.90;;;;;;5021412;28;19953;-78
2022/01/25 01:55:53;;;;;;;;;;;4.30;99.90;;;;;;5022866;28;19910;-78
2022/01/25 01:58:19;;;;;;;;;;;4.30;99.90;;;;;;5020321;28;19913;-79
2022/01/25 02:00:46;;;;;;;;;;;4.30;99.90;;;;;;5021374;28;19937;-78
2022/01/25 02:03:12;;;;;;;;;;;4.30;99.90;;;;;;5020925;28;20271;-78
2022/01/25 02:05:37;;;;;;;;;;;4.30;99.90;;;;;;5035347;28;19924;-78
2022/01/25 02:08:03;;;;;;;;;;;4.20;99.90;;;;;;5020192;28;19917;-79
2022/01/25 02:10:28;;;;;;;;;;;4.20;99.90;;;;;;5021999;28;19992;-78
2022/01/25 02:12:54;;;;;;;;;;;4.20;99.90;;;;;;5021504;28;19913;-78
2022/01/25 02:15:20;;;;;;;;;;;4.20;99.90;;;;;;5022312;28;19917;-78
2022/01/25 02:23:21;;;;;;;;;;;4.30;99.90;;;;;;5020293;28;20413;-78
2022/01/25 02:25:47;;;;;;;;;;;4.30;99.90;;;;;;5035667;28;19921;-79
2022/01/25 02:28:13;;;;;;;;;;;4.30;99.90;;;;;;5022318;28;19952;-78
2022/01/25 02:30:39;;;;;;;;;;;4.30;99.90;;;;;;5021004;28;19921;-79
2022/01/25 02:33:04;;;;;;;;;;;4.20;99.90;;;;;;5019080;28;19917;-79
2022/01/25 02:35:30;;;;;;;;;;;4.20;99.90;;;;;;5021508;28;19965;-78
2022/01/25 02:37:55;;;;;;;;;;;4.20;99.90;;;;;;5020190;28;19913;-78
2022/01/25 02:40:21;;;;;;;;;;;4.20;99.90;;;;;;5022267;28;19909;-78
2022/01/25 02:42:46;;;;;;;;;;;4.20;99.90;;;;;;5019721;28;19917;-78
2022/01/25 02:45:16;;;;;;;;;;;4.20;99.90;;;;;;5021516;28;19917;-78
2022/01/25 02:50:25;;;;;;;;;;;4.20;99.90;;;;;;5022049;28;19921;-79
2022/01/25 02:52:50;;;;;;;;;;;4.20;99.90;;;;;;5019782;28;19913;-78
2022/01/25 02:55:18;;;;;;;;;;;4.20;99.90;;;;;;5021477;28;19960;-78
2022/01/25 02:57:45;;;;;;;;;;;4.30;99.90;;;;;;5021404;28;19921;-78
2022/01/25 03:00:10;;;;;;;;;;;4.30;99.90;;;;;;5022766;28;19913;-78
2022/01/25 03:02:36;;;;;;;;;;;4.30;99.90;;;;;;5022617;28;20416;-79
2022/01/25 03:05:02;;;;;;;;;;;4.30;99.90;;;;;;5024151;28;19913;-79
2022/01/25 03:07:27;;;;;;;;;;;4.30;99.90;;;;;;5024810;28;19917;-79
2022/01/25 03:09:53;;;;;;;;;;;4.30;93.60;;;;;;5025240;28;19913;-78
2022/01/25 03:12:30;;;;;;;;;;;4.30;9.30;;;;;;5028746;28;20322;-78
2022/01/25 03:15:22;;;;;;;;;;;4.30;1.00;;;;;;5040087;28;19937;-78
2022/01/25 03:17:49;;;;;;;;;;;4.30;1.00;;;;;;5022449;28;19920;-78
2022/01/25 03:20:21;;;;;;;;;;;4.30;1.00;;;;;;5021887;28;19973;-78
2022/01/25 03:25:21;;;;;;;;;;;4.30;1.00;;;;;;5013276;28;19951;-78
2022/01/25 03:27:47;;;;;;;;;;;4.30;8.40;;;;;;5019241;28;19956;-79
2022/01/25 03:30:12;;;;;;;;;;;4.30;31.50;;;;;;5036237;28;19913;-78
2022/01/25 03:32:38;;;;;;;;;;;4.30;38.40;;;;;;5019485;28;19913;-78
2022/01/25 03:35:04;;;;;;;;;;;4.30;2.90;;;;;;5019889;28;19936;-79
2022/01/25 03:37:29;;;;;;;;;;;4.30;36.50;;;;;;5020014;28;19964;-78
2022/01/25 03:39:55;;;;;;;;;;;4.30;1.00;;;;;;5020380;28;19913;-78
2022/01/25 03:42:20;;;;;;;;;;;4.30;1.00;;;;;;5019260;28;20005;-78
2022/01/25 03:44:46;;;;;;;;;;;4.20;1.00;;;;;;5019457;28;19917;-78
2022/01/25 03:47:13;;;;;;;;;;;4.20;10.60;;;;;;5017059;28;19918;-78
2022/01/25 03:49:52;;;;;;;;;;;4.20;42.20;;;;;;5020606;28;20306;-78
2022/01/25 03:52:26;;;;;;;;;;;4.20;45.30;;;;;;5016639;28;19921;-79
2022/01/25 03:54:52;;;;;;;;;;;4.30;85.00;;;;;;5036109;28;19916;-78
2022/01/25 03:57:17;;;;;;;;;;;4.30;72.90;;;;;;5028326;28;19914;-78
2022/01/25 03:59:43;;;;;;;;;;;4.30;99.90;;;;;;5029001;28;19913;-79
2022/01/25 04:02:09;;;;;;;;;;;4.30;99.90;;;;;;5018710;28;19929;-79
2022/01/25 04:04:35;;;;;;;;;;;4.40;99.90;;;;;;5018777;28;19976;-78
2022/01/25 04:07:08;;;;;;;;;;;4.50;62.50;;;;;;5018418;28;19936;-78
2022/01/25 04:09:33;;;;;;;;;;;4.60;1.00;;;;;;5035799;28;19921;-78
2022/01/25 04:12:01;;;;;;;;;;;4.60;1.00;;;;;;5018269;28;20285;-78
2022/01/25 04:14:27;;;;;;;;;;;4.60;1.00;;;;;;5019562;28;19961;-78
2022/01/25 04:16:59;;;;;;;;;;;4.70;1.00;;;;;;5019327;28;19913;-78
2022/01/25 04:27:29;;;;;;;;;;;4.90;1.00;;;;;;5022700;28;20012;-78
2022/01/25 04:29:54;;;;;;;;;;;4.90;1.00;;;;;;5018188;28;19953;-78
2022/01/25 04:32:31;;;;;;;;;;;4.90;99.90;;;;;;5017567;28;19914;-78
2022/01/25 04:48:58;;;;;;;;;;;4.80;86.90;;;;;;5018725;28;19928;-78
2022/01/25 04:55:19;;;;;;;;;;;4.80;1.00;;;;;;5022432;28;20321;-79
2022/01/25 04:57:17;;;;;;;;;;;4.80;15.20;;;;;;5030235;28;19921;-78
2022/01/25 05:02:20;;;;;;;;;;;4.80;49.30;;;;;;5023698;28;19925;-78
2022/01/25 05:04:53;;;;;;;;;;;4.70;41.20;;;;;;5022047;28;19920;-78
2022/01/25 05:09:49;;;;;;;;;;;4.60;99.90;;;;;;5022667;28;19953;-79
2022/01/25 05:12:15;;;;;;;;;;;4.50;99.90;;;;;;5021903;28;19933;-79
2022/01/25 05:15:21;;;;;;;;;;;4.40;99.90;;;;;;5021380;28;20349;-79
2022/01/25 05:17:41;;;;;;;;;;;4.30;99.90;;;;;;5016486;28;19952;-78
2022/01/25 05:22:52;;;;;;;;;;;4.30;1.00;;;;;;5021931;28;19920;-78
2022/01/25 05:25:18;;;;;;;;;;;4.30;1.00;;;;;;5021569;28;19914;-78
2022/01/25 05:27:43;;;;;;;;;;;4.30;99.90;;;;;;5035026;28;19922;-79
2022/01/25 05:30:09;;;;;;;;;;;4.40;99.90;;;;;;5021758;28;19914;-79
2022/01/25 05:32:34;;;;;;;;;;;4.40;1.00;;;;;;5021799;28;20012;-78
2022/01/25 05:35:01;;;;;;;;;;;4.50;99.90;;;;;;5020906;28;19979;-78
2022/01/25 05:37:27;;;;;;;;;;;4.50;99.90;;;;;;5021326;28;19918;-78
2022/01/25 05:39:53;;;;;;;;;;;4.50;99.90;;;;;;5020207;28;19921;-78
2022/01/25 05:47:19;;;;;;;;;;;4.50;99.90;;;;;;5019350;28;19918;-79
2022/01/25 05:49:45;;;;;;;;;;;4.50;99.90;;;;;;5021858;28;19980;-78
2022/01/25 05:52:11;;;;;;;;;;;4.50;99.90;;;;;;5027379;28;19918;-78
2022/01/25 05:54:37;;;;;;;;;;;4.50;99.90;;;;;;5030883;28;20012;-78
2022/01/25 05:57:03;;;;;;;;;;;4.50;99.90;;;;;;5019744;28;19917;-79
2022/01/25 05:59:28;;;;;;;;;;;4.50;99.90;;;;;;5021181;28;19913;-78
2022/01/25 06:01:54;;;;;;;;;;;4.50;99.90;;;;;;5021305;28;19914;-78
2022/01/25 06:04:22;;;;;;;;;;;4.50;99.90;;;;;;5035835;28;19920;-78
2022/01/25 06:06:47;;;;;;;;;;;4.50;57.20;;;;;;5032960;28;20428;-78
2022/01/25 06:09:12;;;;;;;;;;;4.50;34.40;;;;;;5023379;28;19914;-78
2022/01/25 06:11:38;;;;;;;;;;;4.50;23.40;;;;;;5034326;28;19928;-79
2022/01/25 06:14:04;;;;;;;;;;;4.50;22.30;;;;;;5022812;28;19917;-78
2022/01/25 06:16:30;;;;;;;;;;;4.50;8.30;;;;;;5020519;28;19989;-78
2022/01/25 06:18:56;;;;;;;;;;;4.50;20.60;;;;;;5020044;28;19930;-78
2022/01/25 06:21:21;;;;;;;;;;;4.50;1.00;;;;;;5022668;28;19913;-79
2022/01/25 06:23:47;;;;;;;;;;;4.50;1.00;;;;;;5028478;28;19910;-79
2022/01/25 06:26:12;;;;;;;;;;;4.50;1.00;;;;;;5036258;28;20572;-78
2022/01/25 06:28:38;;;;;;;;;;;4.50;1.00;;;;;;5020408;28;19933;-78
2022/01/25 06:31:03;;;;;;;;;;;4.40;1.00;;;;;;5019702;28;19913;-78
2022/01/25 06:33:29;;;;;;;;;;;4.40;1.00;;;;;;5035872;28;19913;-79
2022/01/25 06:35:56;;;;;;;;;;;4.40;1.00;;;;;;5030731;28;19917;-79
2022/01/25 06:38:21;;;;;;;;;;;4.40;1.00;;;;;;5014288;28;19909;-78
2022/01/25 06:40:47;;;;;;;;;;;4.40;1.00;;;;;;5005463;28;20004;-78
2022/01/25 06:43:12;;;;;;;;;;;4.40;1.00;;;;;;5016319;28;19960;-78
2022/01/25 06:45:40;;;;;;;;;;;4.40;1.30;;;;;;5020684;28;19914;-78
2022/01/25 06:48:06;;;;;;;;;;;4.40;30.40;;;;;;5019570;28;20297;-78
2022/01/25 06:50:32;;;;;;;;;;;4.40;40.80;;;;;;5020482;28;19916;-78
2022/01/25 06:52:57;;;;;;;;;;;4.40;4.20;;;;;;5019107;28;19928;-78
2022/01/25 06:55:23;;;;;;;;;;;4.40;1.00;;;;;;5035755;28;19944;-78
2022/01/25 06:57:48;;;;;;;;;;;4.40;1.00;;;;;;5028256;28;19914;-79
2022/01/25 07:00:19;;;;;;;;;;;4.50;34.40;;;;;;5029565;28;20305;-79
2022/01/25 07:02:45;;;;;;;;;;;4.50;99.90;;;;;;5028604;28;19920;-80
2022/01/25 07:05:10;;;;;;;;;;;4.60;17.30;;;;;;5029292;28;19945;-79
2022/01/25 07:07:37;;;;;;;;;;;4.70;1.00;;;;;;5015434;28;19924;-80
2022/01/25 07:10:03;;;;;;;;;;;4.70;1.00;;;;;;5016416;28;19914;-81
2022/01/25 07:12:28;;;;;;;;;;;4.70;1.00;;;;;;5027674;28;20112;-80
2022/01/25 07:14:54;;;;;;;;;;;4.70;1.00;;;;;;5018618;28;19913;-80
2022/01/25 07:17:19;;;;;;;;;;;4.70;1.00;;;;;;5040582;28;19941;-79
2022/01/25 07:19:45;;;;;;;;;;;4.80;1.00;;;;;;5028070;28;19917;-79
2022/01/25 07:22:10;;;;;;;;;;;4.80;1.00;;;;;;5029300;28;19910;-80
2022/01/25 07:24:36;;;;;;;;;;;4.90;99.90;;;;;;5028399;28;20265;-80
2022/01/25 07:27:01;;;;;;;;;;;4.90;99.90;;;;;;5029570;28;19967;-80
2022/01/25 07:29:27;;;;;;;;;;;4.90;99.90;;;;;;5026784;28;19913;-81
2022/01/25 07:31:53;;;;;;;;;;;4.90;99.90;;;;;;5045522;28;19910;-79
2022/01/25 07:34:18;;;;;;;;;;;4.80;99.90;;;;;;5045051;28;19914;-80
2022/01/25 07:36:44;;;;;;;;;;;4.90;99.90;;;;;;5038737;28;19936;-79
2022/01/25 07:39:11;;;;;;;;;;;4.90;99.90;;;;;;5027431;28;20393;-79
2022/01/25 07:41:37;;;;;;;;;;;4.90;99.90;;;;;;5043140;28;19913;-80
2022/01/25 07:44:03;;;;;;;;;;;4.90;23.00;;;;;;5028328;28;19913;-80
2022/01/25 07:46:29;;;;;;;;;;;4.80;1.00;;;;;;5045471;28;19909;-80
2022/01/25 07:48:55;;;;;;;;;;;4.80;1.00;;;;;;5043630;28;19928;-80
2022/01/25 07:51:21;;;;;;;;;;;4.80;1.00;;;;;;5026887;28;19936;-80
2022/01/25 07:53:47;;;;;;;;;;;4.80;1.00;;;;;;5025915;28;20074;-79
2022/01/25 07:56:12;;;;;;;;;;;4.80;1.00;;;;;;5053828;28;19913;-79
2022/01/25 07:58:37;;;;;;;;;;;4.80;11.80;;;;;;5046989;28;19909;-79
2022/01/25 08:01:04;;;;;;;;;;;4.80;40.10;;;;;;5028880;28;19936;-79
2022/01/25 08:03:29;;;;;;;;;;;4.80;47.30;;;;;;5010548;28;19910;-80
2022/01/25 08:05:55;;;;;;;;;;;4.90;51.20;;;;;;5026805;28;19920;-79
2022/01/25 08:08:20;;;;;;;;;;;4.80;19.60;;;;;;5034003;28;19921;-79
2022/01/25 08:10:46;;;;;;;;;;;4.80;8.20;;;;;;5027331;28;20386;-79
2022/01/25 08:13:11;;;;;;;;;;;4.80;3.90;;;;;;5024027;28;19963;-79
2022/01/25 08:15:37;;;;;;;;;;;4.90;1.00;;;;;;5043969;28;19914;-79
2022/01/25 08:18:02;;;;;;;;;;;4.80;1.00;;;;;;5043135;28;20366;-79
2022/01/25 08:20:28;;;;;;;;;;;4.80;1.00;;;;;;5024775;28;19913;-80
2022/01/25 08:22:53;;;;;;;;;;;4.90;1.00;;;;;;5031994;28;19923;-79
2022/01/25 08:25:19;;;;;;;;;;;4.80;1.00;;;;;;5018866;28;19920;-79
2022/01/25 08:27:45;;;;;;;;;;;4.90;1.00;;;;;;5033706;28;19914;-80
2022/01/25 08:30:11;;;;;;;;;;;4.90;1.00;;;;;;5028569;28;19959;-81
2022/01/25 08:32:36;;;;;;;;;;;4.90;1.00;;;;;;5028400;28;20305;-80
2022/01/25 08:35:02;;;;;;;;;;;4.90;1.00;;;;;;5033291;28;19925;-80
2022/01/25 08:37:27;;;;;;;;;;;5.00;1.00;;;;;;5031394;28;19964;-79
2022/01/25 08:39:53;;;;;;;;;;;5.00;1.00;;;;;;5030264;28;20445;-80
2022/01/25 08:42:19;;;;;;;;;;;5.00;1.00;;;;;;5035699;28;19913;-79
2022/01/25 08:44:45;;;;;;;;;;;5.10;99.90;;;;;;5043750;28;19920;-79
2022/01/25 08:47:10;;;;;;;;;;;5.10;99.90;;;;;;5032955;28;20366;-79
2022/01/25 08:49:36;;;;;;;;;;;5.20;99.90;;;;;;5033832;28;19913;-79
2022/01/25 08:52:02;;;;;;;;;;;5.20;99.90;;;;;;5030556;28;19914;-79
2022/01/25 08:54:28;;;;;;;;;;;5.30;1.00;;;;;;5031671;28;19993;-80
2022/01/25 08:56:53;;;;;;;;;;;5.30;1.00;;;;;;5028166;28;19913;-79
2022/01/25 08:59:19;;;;;;;;;;;5.30;1.00;;;;;;5024278;28;19913;-79
2022/01/25 09:01:45;;;;;;;;;;;5.30;1.00;;;;;;5046630;28;19914;-79
2022/01/25 09:04:10;;;;;;;;;;;5.40;1.00;;;;;;5029644;28;19976;-79
2022/01/25 09:06:36;;;;;;;;;;;5.40;1.00;;;;;;5024324;28;20282;-79
2022/01/25 09:09:05;;;;;;;;;;;5.50;1.00;;;;;;5031348;28;19924;-79
2022/01/25 09:11:31;;;;;;;;;;;5.50;99.90;;;;;;5027156;28;19980;-80
2022/01/25 09:13:57;;;;;;;;;;;5.50;99.90;;;;;;5045363;28;19913;-79
2022/01/25 09:16:23;;;;;;;;;;;5.50;99.90;;;;;;5038550;28;20378;-79
2022/01/25 09:18:48;;;;;;;;;;;5.40;34.40;;;;;;5027179;28;19921;-79
2022/01/25 09:21:13;;;;;;;;;;;5.40;99.90;;;;;;5026564;28;19985;-79
2022/01/25 09:23:39;;;;;;;;;;;5.40;99.90;;;;;;5039621;28;19929;-79
2022/01/25 09:26:06;;;;;;;;;;;5.40;11.40;;;;;;5029525;28;19975;-79
2022/01/25 09:28:32;;;;;;;;;;;5.40;1.00;;;;;;5046563;28;19977;-79
2022/01/25 09:30:57;;;;;;;;;;;5.30;1.00;;;;;;5031828;28;19913;-79
2022/01/25 09:33:23;;;;;;;;;;;5.40;1.00;;;;;;5033465;28;19913;-79
2022/01/25 09:35:50;;;;;;;;;;;5.40;11.20;;;;;;5018022;28;20345;-78
2022/01/25 09:38:15;;;;;;;;;;;5.50;78.60;;;;;;5047690;28;19910;-80
2022/01/25 09:40:41;;;;;;;;;;;5.50;1.00;;;;;;5032868;28;19900;-79
2022/01/25 09:43:07;;;;;;;;;;;5.60;1.00;;;;;;5027719;28;19921;-79
2022/01/25 09:45:33;;;;;;;;;;;5.70;1.00;;;;;;5036617;28;19949;-79
2022/01/25 09:47:58;;;;;;;;;;;5.70;1.00;;;;;;5030935;28;19928;-79
2022/01/25 09:50:24;;;;;;;;;;;5.70;99.90;;;;;;5022597;28;19917;-79
2022/01/25 09:52:49;;;;;;;;;;;5.80;99.90;;;;;;5025861;28;20060;-79
2022/01/25 09:55:16;;;;;;;;;;;5.70;99.90;;;;;;5022076;28;19921;-79
2022/01/25 09:57:42;;;;;;;;;;;5.70;99.90;;;;;;5025760;28;20039;-79
2022/01/25 10:00:10;;;;;;;;;;;5.80;99.90;;;;;;5026240;28;19924;-80
2022/01/25 10:02:36;;;;;;;;;;;5.90;99.90;;;;;;5028650;28;19977;-79
2022/01/25 10:05:14;;;;;;;;;;;5.90;66.40;;;;;;5045297;28;19914;-79
2022/01/25 10:07:39;;;;;;;;;;;6.00;1.00;;;;;;5042388;28;19913;-79
2022/01/25 10:10:05;;;;;;;;;;;5.90;1.00;;;;;;5039804;28;19921;-80
2022/01/25 10:12:31;;;;;;;;;;;6.00;1.00;;;;;;5029163;28;19924;-78
2022/01/25 10:14:59;;;;;;;;;;;5.90;1.00;;;;;;5039909;28;19914;-79
2022/01/25 10:17:34;;;;;;;;;;;6.00;1.00;;;;;;5030332;28;19999;-78
2022/01/25 10:20:00;;;;;;;;;;;6.00;99.90;;;;;;5024606;28;19914;-79
2022/01/25 10:22:26;;;;;;;;;;;6.00;1.00;;;;;;5023420;28;19921;-79
2022/01/25 10:24:52;;;;;;;;;;;6.00;99.90;;;;;;5027969;28;19908;-79
2022/01/25 10:27:57;;;;;;;;;;;6.10;99.90;;;;;;5029628;28;19952;-79
2022/01/25 10:30:07;;;;;;;;;;;6.20;99.90;;;;;;5030812;28;19913;-79
2022/01/25 10:32:32;;;;;;;;;;;6.30;99.90;;;;;;5042803;28;19913;-79
2022/01/25 10:34:58;;;;;;;;;;;6.40;99.90;;;;;;5041269;28;19921;-79
2022/01/25 10:37:24;;;;;;;;;;;6.40;99.90;;;;;;5032102;28;19920;-79
2022/01/25 10:39:52;;;;;;;;;;;6.50;65.20;;;;;;5023126;28;19909;-79
2022/01/25 10:42:22;;;;;;;;;;;6.50;1.00;;;;;;5029070;28;20401;-79
2022/01/25 10:44:52;;;;;;;;;;;6.60;1.00;;;;;;5029888;28;19925;-79
2022/01/25 10:47:18;;;;;;;;;;;6.70;1.00;;;;;;5025086;28;19917;-79
2022/01/25 10:49:52;;;;;;;;;;;6.70;1.00;;;;;;5042156;28;19921;-79
2022/01/25 10:52:25;;;;;;;;;;;6.70;99.90;;;;;;5023366;28;19901;-79
2022/01/25 10:54:50;;;;;;;;;;;6.60;99.90;;;;;;5030907;28;19913;-79
2022/01/25 10:57:20;;;;;;;;;;;6.40;99.90;;;;;;5024884;28;19924;-80
2022/01/25 10:59:59;;;;;;;;;;;6.30;99.90;;;;;;5023703;28;19922;-79
2022/01/25 11:02:24;;;;;;;;;;;6.20;99.90;;;;;;5035444;28;19980;-79
2022/01/25 11:04:52;;;;;;;;;;;6.20;99.90;;;;;;5046490;28;19920;-79
2022/01/25 11:07:17;;;;;;;;;;;6.30;99.90;;;;;;5028567;28;19928;-79
2022/01/25 11:09:46;;;;;;;;;;;6.50;99.90;;;;;;5026215;28;19981;-79
2022/01/25 11:12:14;;;;;;;;;;;6.60;99.90;;;;;;5025027;28;19924;-79
2022/01/25 11:14:53;;;;;;;;;;;6.60;99.90;;;;;;5020671;28;19920;-79
2022/01/25 11:17:23;;;;;;;;;;;6.50;25.00;;;;;;5015723;28;19913;-79
2022/01/25 11:19:49;;;;;;;;;;;6.30;37.90;;;;;;5024999;28;19914;-78
2022/01/25 11:22:21;;;;;;;;;;;6.30;99.90;;;;;;5030144;28;19992;-79
2022/01/25 11:25:05;;;;;;;;;;;6.30;99.90;;;;;;5033607;28;19910;-79
2022/01/25 11:27:31;;;;;;;;;;;6.20;99.90;;;;;;5031001;28;19953;-79
2022/01/25 11:29:57;;;;;;;;;;;6.10;99.90;;;;;;5033555;28;20440;-79
2022/01/25 11:32:25;;;;;;;;;;;6.00;99.90;;;;;;5017398;28;20448;-79
2022/01/25 11:34:51;;;;;;;;;;;6.00;99.90;;;;;;5030872;28;19924;-78
2022/01/25 11:37:16;;;;;;;;;;;6.20;99.90;;;;;;5041986;28;19926;-79
2022/01/25 11:39:43;;;;;;;;;;;6.30;99.90;;;;;;5027861;28;19913;-79
2022/01/25 11:42:11;;;;;;;;;;;6.30;99.90;;;;;;5026742;28;19920;-79
2022/01/25 11:44:46;;;;;;;;;;;6.40;99.90;;;;;;5029077;28;19920;-79
2022/01/25 11:47:13;;;;;;;;;;;6.30;99.90;;;;;;5028093;28;19918;-79
2022/01/25 11:49:52;;;;;;;;;;;6.30;99.90;;;;;;5045953;28;19981;-79
2022/01/25 11:52:19;;;;;;;;;;;6.40;99.90;;;;;;5028537;28;19921;-79
2022/01/25 11:54:44;;;;;;;;;;;6.50;99.90;;;;;;5037311;28;19913;-79
2022/01/25 11:57:14;;;;;;;;;;;6.30;14.60;;;;;;5024051;28;19916;-79
2022/01/25 11:59:41;;;;;;;;;;;6.20;62.10;;;;;;5030565;28;19980;-79
2022/01/25 12:02:07;;;;;;;;;;;6.30;99.90;;;;;;5029645;28;20374;-79
2022/01/25 12:04:32;;;;;;;;;;;6.50;91.10;;;;;;5028752;28;19920;-79
2022/01/25 12:07:08;;;;;;;;;;;6.50;9.90;;;;;;5019175;28;19921;-80
2022/01/25 12:10:02;;;;;;;;;;;6.40;1.00;;;;;;5019704;28;19960;-79
2022/01/25 12:12:27;;;;;;;;;;;6.40;1.00;;;;;;5029372;28;19909;-79
2022/01/25 12:14:55;;;;;;;;;;;6.40;1.00;;;;;;5025323;28;19920;-79
2022/01/25 12:17:23;;;;;;;;;;;6.30;1.00;;;;;;5039734;28;19909;-79
2022/01/25 12:19:50;;;;;;;;;;;6.20;1.00;;;;;;5028491;28;19921;-79
2022/01/25 12:25:06;;;;;;;;;;;6.10;15.50;;;;;;5024377;28;19920;-80
2022/01/25 12:27:34;;;;;;;;;;;6.20;32.00;;;;;;5040095;28;20349;-79
2022/01/25 12:30:00;;;;;;;;;;;6.20;1.00;;;;;;5019492;28;19904;-79
2022/01/25 12:32:35;;;;;;;;;;;6.10;3.20;;;;;;5028699;28;19913;-79
2022/01/25 12:35:04;;;;;;;;;;;6.10;1.00;;;;;;5016108;28;19921;-79
2022/01/25 12:37:45;;;;;;;;;;;6.20;3.60;;;;;;5025981;28;20287;-80
2022/01/25 12:40:36;;;;;;;;;;;6.30;1.00;;;;;;5022131;28;19914;-78
2022/01/25 12:43:03;;;;;;;;;;;6.30;1.00;;;;;;5020383;28;20181;-79
2022/01/25 12:45:30;;;;;;;;;;;6.40;1.00;;;;;;5029363;28;20385;-79
2022/01/25 12:48:00;;;;;;;;;;;6.40;1.00;;;;;;5028849;28;19985;-79
2022/01/25 12:50:26;;;;;;;;;;;6.40;1.00;;;;;;5028364;28;20340;-79
2022/01/25 12:52:52;;;;;;;;;;;6.50;1.00;;;;;;5021368;28;20000;-79
2022/01/25 12:55:22;;;;;;;;;;;6.60;1.00;;;;;;5009107;28;19917;-79
2022/01/25 12:57:49;;;;;;;;;;;6.70;1.00;;;;;;5008954;28;19914;-80
2022/01/25 13:00:15;;;;;;;;;;;6.80;1.00;;;;;;5009096;28;19910;-79
2022/01/25 13:02:41;;;;;;;;;;;6.80;1.00;;;;;;5007001;28;19917;-79
2022/01/25 13:05:17;;;;;;;;;;;6.80;99.90;;;;;;5008962;28;20450;-79
2022/01/25 13:07:42;;;;;;;;;;;6.70;99.90;;;;;;5009236;28;19968;-79
2022/01/25 13:10:10;;;;;;;;;;;6.60;99.90;;;;;;5010999;28;19910;-79
2022/01/25 13:12:47;;;;;;;;;;;6.50;99.90;;;;;;5011228;28;19956;-79
2022/01/25 13:15:38;;;;;;;;;;;6.40;99.90;;;;;;5011336;28;19910;-79
2022/01/25 13:18:10;;;;;;;;;;;6.30;99.90;;;;;;5012526;28;19964;-79
2022/01/25 13:20:37;;;;;;;;;;;6.30;99.90;;;;;;5011729;28;20016;-79
2022/01/25 13:23:02;;;;;;;;;;;6.30;1.00;;;;;;5011412;28;19965;-80
2022/01/25 13:25:34;;;;;;;;;;;6.30;1.00;;;;;;5011889;28;19922;-79
2022/01/25 13:28:09;;;;;;;;;;;6.30;1.00;;;;;;5011783;28;20005;-79
2022/01/25 13:30:49;;;;;;;;;;;6.30;1.00;;;;;;5028416;28;19909;-79
2022/01/25 13:33:19;;;;;;;;;;;6.40;1.00;;;;;;5030740;28;19913;-80
2022/01/25 13:35:50;;;;;;;;;;;6.40;1.00;;;;;;5032053;28;19924;-79
2022/01/25 13:38:21;;;;;;;;;;;6.50;1.00;;;;;;5031215;28;19986;-80
2022/01/25 13:41:02;;;;;;;;;;;6.50;1.00;;;;;;5030924;28;19968;-79
2022/01/25 13:45:59;;;;;;;;;;;6.20;1.00;;;;;;5033116;28;19914;-79
2022/01/25 13:48:27;;;;;;;;;;;6.30;1.00;;;;;;5027215;28;19918;-80
2022/01/25 13:50:56;;;;;;;;;;;6.30;1.00;;;;;;5031495;28;20008;-79
2022/01/25 13:53:22;;;;;;;;;;;6.10;1.00;;;;;;5039250;28;19914;-80
2022/01/25 13:55:52;;;;;;;;;;;6.00;1.00;;;;;;5038673;28;20389;-80
2022/01/25 13:58:23;;;;;;;;;;;6.20;1.00;;;;;;5029325;28;19917;-80
2022/01/25 14:00:49;;;;;;;;;;;6.20;1.00;;;;;;5024804;28;19914;-80
2022/01/25 14:03:15;;;;;;;;;;;6.40;1.00;;;;;;5026278;28;19925;-79
2022/01/25 14:05:41;;;;;;;;;;;6.40;1.00;;;;;;5031467;28;19909;-80
2022/01/25 14:08:06;;;;;;;;;;;6.40;1.00;;;;;;5029319;28;19904;-80
2022/01/25 14:10:32;;;;;;;;;;;6.30;1.00;;;;;;5031592;28;19920;-80
2022/01/25 14:21:57;;;;;;;;;;;6.10;1.00;;;;;;5030825;28;19936;-79
2022/01/25 14:24:31;;;;;;;;;;;6.00;1.00;;;;;;5045888;28;20545;-79
2022/01/25 14:26:58;;;;;;;;;;;5.90;1.00;;;;;;5032617;28;19925;-79
2022/01/25 14:29:24;;;;;;;;;;;5.90;1.00;;;;;;5015390;28;19914;-79
2022/01/25 14:31:49;;;;;;;;;;;6.00;1.00;;;;;;5014779;28;19920;-79
2022/01/25 14:34:17;;;;;;;;;;;6.20;1.00;;;;;;5016988;28;19920;-79
2022/01/25 14:36:48;;;;;;;;;;;6.30;1.00;;;;;;5016101;28;19953;-79
2022/01/25 14:39:15;;;;;;;;;;;6.30;1.00;;;;;;5014082;28;19937;-79
2022/01/25 14:41:41;;;;;;;;;;;6.30;1.00;;;;;;5014655;28;19913;-78
2022/01/25 14:44:08;;;;;;;;;;;6.40;99.90;;;;;;5012931;28;19968;-77
2022/01/25 14:46:36;;;;;;;;;;;6.30;99.90;;;;;;5015061;28;19964;-78
2022/01/25 14:49:07;;;;;;;;;;;6.20;99.90;;;;;;5014977;28;19909;-79
2022/01/25 14:51:34;;;;;;;;;;;6.20;99.90;;;;;;5014216;28;19913;-78
2022/01/25 14:54:00;;;;;;;;;;;6.20;99.90;;;;;;5016446;28;19937;-78
2022/01/25 14:56:49;;;;;;;;;;;6.10;99.90;;;;;;5011083;28;19921;-78
2022/01/25 14:59:23;;;;;;;;;;;6.00;99.90;;;;;;5016358;28;20016;-78
2022/01/25 15:01:49;;;;;;;;;;;5.90;1.00;;;;;;5022224;28;19909;-80
2022/01/25 15:04:15;;;;;;;;;;;5.80;1.00;;;;;;5010625;28;20007;-79
2022/01/25 15:06:40;;;;;;;;;;;5.80;1.00;;;;;;5027669;28;19953;-77
2022/01/25 15:09:06;;;;;;;;;;;5.80;1.00;;;;;;5016089;28;19910;-78
2022/01/25 15:11:32;;;;;;;;;;;5.80;1.00;;;;;;5025741;28;19925;-78
2022/01/25 15:14:07;;;;;;;;;;;5.80;1.00;;;;;;5014080;28;19917;-79
2022/01/25 15:16:32;;;;;;;;;;;5.70;1.00;;;;;;5024309;28;20298;-79
2022/01/25 15:18:58;;;;;;;;;;;5.70;1.00;;;;;;5014539;28;19916;-78
2022/01/25 15:21:23;;;;;;;;;;;5.70;1.00;;;;;;5013865;28;19913;-79
2022/01/25 15:23:50;;;;;;;;;;;5.60;1.00;;;;;;5015308;28;19920;-78
2022/01/25 15:26:18;;;;;;;;;;;5.50;99.90;;;;;;5015383;28;19917;-78
2022/01/25 15:28:47;;;;;;;;;;;5.50;99.90;;;;;;5013899;28;20282;-79
2022/01/25 15:31:14;;;;;;;;;;;5.50;1.00;;;;;;5014187;28;20375;-77
2022/01/25 15:33:40;;;;;;;;;;;5.60;1.00;;;;;;5017062;28;19918;-78
2022/01/25 15:36:07;;;;;;;;;;;5.60;1.00;;;;;;5015703;28;19980;-78
2022/01/25 15:38:33;;;;;;;;;;;5.70;1.00;;;;;;5028973;28;19921;-78
2022/01/25 15:41:00;;;;;;;;;;;5.70;1.00;;;;;;5012427;28;19922;-79
2022/01/25 15:43:30;;;;;;;;;;;5.70;1.00;;;;;;5014396;28;19966;-78
2022/01/25 15:46:04;;;;;;;;;;;5.60;1.00;;;;;;5012461;28;20352;-78
2022/01/25 15:48:31;;;;;;;;;;;5.50;1.00;;;;;;5013558;28;19917;-80
2022/01/25 15:50:56;;;;;;;;;;;5.50;1.00;;;;;;5014263;28;19917;-80
2022/01/25 15:53:22;;;;;;;;;;;5.40;1.00;;;;;;5015594;28;19910;-77
2022/01/25 15:55:49;;;;;;;;;;;5.40;1.00;;;;;;5013937;28;19913;-79
2022/01/25 15:58:14;;;;;;;;;;;5.30;1.00;;;;;;5013858;28;19909;-78
2022/01/25 16:00:46;;;;;;;;;;;5.30;1.00;;;;;;5012981;28;19913;-79
2022/01/25 16:03:12;;;;;;;;;;;5.20;1.00;;;;;;5014745;28;19949;-78
2022/01/25 16:05:39;;;;;;;;;;;5.30;1.00;;;;;;5014137;28;19913;-79
2022/01/25 16:08:04;;;;;;;;;;;5.40;1.00;;;;;;5015221;28;19921;-79
2022/01/25 16:10:32;;;;;;;;;;;5.40;1.00;;;;;;5014949;28;19913;-79
2022/01/25 16:12:57;;;;;;;;;;;5.50;1.00;;;;;;5024318;28;19932;-79
2022/01/25 16:15:23;;;;;;;;;;;5.60;1.00;;;;;;5024600;28;19921;-79
2022/01/25 16:17:48;;;;;;;;;;;5.60;1.00;;;;;;5041557;28;19914;-80
2022/01/25 16:20:14;;;;;;;;;;;5.60;1.00;;;;;;5025703;28;19924;-79
2022/01/25 16:22:39;;;;;;;;;;;5.70;1.00;;;;;;5043246;28;19909;-80
2022/01/25 16:25:05;;;;;;;;;;;5.70;1.00;;;;;;5041295;28;20473;-79
2022/01/25 16:27:30;;;;;;;;;;;5.70;1.00;;;;;;5025953;28;19914;-80
2022/01/25 16:29:55;;;;;;;;;;;5.70;1.00;;;;;;5027912;28;19935;-80
2022/01/25 16:32:23;;;;;;;;;;;5.70;1.00;;;;;;5024681;28;19964;-79
2022/01/25 16:34:49;;;;;;;;;;;5.60;1.00;;;;;;5016593;28;19921;-79
2022/01/25 16:37:14;;;;;;;;;;;5.60;1.00;;;;;;5024939;28;20302;-79
2022/01/25 16:39:40;;;;;;;;;;;5.60;1.00;;;;;;5026559;28;19914;-79
2022/01/25 16:42:06;;;;;;;;;;;5.60;1.00;;;;;;5020259;28;20322;-78